Weather at Clonakilty Airstrip

Public forecast

Using degrees Celsius for public forecast. Weather courtesy of forecast.io.

Closest aviation weather report (METAR) to Clonakilty Airstrip

Closest report is Cork Airport, 20.4 nm (37.8 km) NE. Retrieved 2021/01/18 22:30 UTC (23 minutes ago):

EICK 182230Z 23014KT 9999 -RA BKN005 10/10 Q1007 TEMPO 3000 BKN003

Closest aviation forecast (TAF) to Clonakilty Airstrip

Closest forecast is Cork Airport, 20.4 nm (37.8 km) NE. Retrieved 2021/01/18 18:09 UTC (5 hours ago):

TAF EICK 181700Z 1818/1918 22007KT 3000 -RADZ BKN003 TEMPO 1818/1824 0300 FG BKN001 BECMG 1819/1821 24012KT BECMG 1821/1823 24017G28KT BECMG 1900/1902 3000 -DZ BKN005 PROB40 TEMPO 1900/1918 1200 -RADZ BR BKN001